Cebollita Spring, Valles Caldera, New Mexico Weather observations

Data are for 10 minute period ending at time listed.
 Day   Time   Solar   Ave.   Ave.  Ave.  Vector  Max.   Baro.   Total    
  of    of     Rad.   Air    Rel.  Wind   Wind   Wind  Press.  Precip.   
Year   Day            Temp.  Hum.  Speed  Dir.   Gust                    
2015   (MST)  Kw/m2    F      %     mph   deg.    mph    mb.     in.     
-------------------------------------------------------------------------
 214    4:30   0.00   52.3    97    0.5    53     1.8   99999.0    0.00 
 214    4:40   0.00   52.3    98    0.0     0     0.0   99999.0    0.00 
 214    4:50   0.00   52.3    98    1.5    68     2.4   99999.0    0.00 
 214    5:00   0.00   52.3    98    0.0    51     1.2   99999.0    0.00 
 214    5:10   0.00   52.3    98    0.1    78     1.2   99999.0    0.00 
 214    5:20   0.00   52.2    98    0.7    58     1.8   99999.0    0.00 
 214    5:30   0.01   52.2    98    0.0     0     0.0   99999.0    0.00 
 214    5:40   0.02   52.2    98    0.2    62     1.2   99999.0    0.00 
 214    5:50   0.03   52.4    98    0.3    80     1.8   99999.0    0.00 
 214    6:00   0.05   52.8    98    0.0     0     0.0   99999.0    0.00 
 214    6:10   0.05   53.2    98    0.0     0     0.0   99999.0    0.00 
 214    6:20   0.05   53.9    98    0.0     0     0.0   99999.0    0.00 
 214    6:30   0.05   54.4    98    0.0     0     0.0   99999.0    0.00 
 214    6:40   0.04   54.9    97    0.0     0     0.0   99999.0    0.00 
 214    6:50   0.04   55.2    96    0.0     0     0.0   99999.0    0.00 
 214    7:00   0.03   55.4    96    0.0     0     0.0   99999.0    0.00 
 214    7:10   0.05   55.7    96    0.0     0     0.0   99999.0    0.00 
 214    7:20   0.10   56.2    95    0.0     0     0.0   99999.0    0.00 
 214    7:30   0.15   56.9    92    0.0     0     0.0   99999.0    0.00 
 214    7:40   0.22   58.1    84    0.7   322     1.8   99999.0    0.00 
 214    7:50   0.32   59.2    73    1.1   351     2.4   99999.0    0.00 
 214    8:00   0.31   61.1    66    0.1    44     1.2   99999.0    0.00 
 214    8:10   0.32   61.8    65    0.7   114     1.8   99999.0    0.00 
 214    8:20   0.39   62.5    61    0.8     3     3.0   99999.0    0.00 
 214    8:30   0.33   62.3    63    1.0   327     3.0   99999.0    0.00 
 214    8:40   0.40   62.7    63    2.2   304     4.2   99999.0    0.00 
 214    8:50   0.63   63.7    61    2.6   299     5.4   99999.0    0.00 
 214    9:00   0.49   64.5    58    4.1   277     7.2   99999.0    0.00 
 214    9:10   0.39   64.3    59    4.3   290    10.2   99999.0    0.00 
 214    9:20   0.42   64.1    60    4.8   305     9.6   99999.0    0.00 
 214    9:30   0.59   65.1    57    4.9   309     9.0   99999.0    0.00 
 214    9:40   0.44   65.3    56    3.8   294     8.4   99999.0    0.00 
 214    9:50   0.67   65.5    57    4.6   300     9.6   99999.0    0.00 
 214   10:00   0.96   68.2    54    4.5   296    10.2   99999.0    0.00 
 214   10:10   0.88   67.7    53    6.2   315    12.5   99999.0    0.00 
 214   10:20   0.84   68.3    52    6.2   304    10.8   99999.0    0.00 
 214   10:30   1.26   69.1    51    5.9   313    13.1   99999.0    0.00 
 214   10:40   0.95   70.2    50    5.6   339    12.5   99999.0    0.00 
 214   10:50   0.59   68.6    52    4.9   309    11.9   99999.0    0.00 
 214   11:00   0.86   69.9    51    3.4   288     8.4   99999.0    0.00 
 214   11:10   1.25   71.4    48    5.5   310    11.9   99999.0    0.00 
 214   11:20   0.55   70.3    50    4.5   330     9.6   99999.0    0.00 
 214   11:30   0.69   69.8    52    4.5   294     8.4   99999.0    0.00 
 214   11:40   0.76   70.2    48    5.0   309    12.5   99999.0    0.00 
 214   11:50   0.47   69.3    50    3.2   284     9.3   99999.0    0.00 
 214   12:00   0.92   69.9    48    4.6   305     9.0   99999.0    0.00 
 214   12:10   1.21   71.2    45    4.7   325     7.8   99999.0    0.00 
 214   12:20   0.72   71.7    44    4.6   262    11.3   99999.0    0.00 
 214   12:30   0.27   69.9    47    4.1   246     7.8   99999.0    0.00 
 214   12:40   0.14   68.9    50    4.2   244     9.6   99999.0    0.00 
 214   12:50   0.21   68.5    51    3.6   232     7.2   99999.0    0.00 
 214   13:00   0.23   68.1    53    3.9   248     8.4   99999.0    0.00 
 214   13:10   0.18   67.6    54    5.9   242    10.2   99999.0    0.00 
 214   13:20   0.25   67.1    55    6.1   248    10.8   99999.0    0.00 
 214   13:30   0.28   67.1    55    5.3   250    11.1   99999.0    0.00 
 214   13:40   0.36   67.3    54    5.0   247    10.2   99999.0    0.00 
 214   13:50   0.41   68.3    53    4.7   240     8.4   99999.0    0.00 
 214   14:00   0.39   68.7    51    2.4   227     5.4   99999.0    0.00 
 214   14:10   0.33   68.8    50    3.4   256     6.0   99999.0    0.00 
 214   14:20   0.31   68.7    51    3.5   249     7.8   99999.0    0.00 
 214   14:30   0.26   67.9    52    3.7   236     8.4   99999.0    0.00 
 214   14:40   0.25   67.5    53    4.3   250     7.2   99999.0    0.00 
 214   14:50   0.25   67.3    54    2.9   209     6.0   99999.0    0.00 
 214   15:00   0.25   67.6    54    2.7   195     5.4   99999.0    0.00 
 214   15:10   0.23   67.4    55    2.2   188     4.2   99999.0    0.00 
 214   15:20   0.18   67.3    56    1.8   206     4.2   99999.0    0.00 
 214   15:30   0.14   66.9    58    2.4   190     4.8   99999.0    0.00 
 214   15:40   0.13   66.4    60    1.6   192     5.4   99999.0    0.00 
 214   15:50   0.13   66.3    63    0.8   216     2.4   99999.0    0.00 
 214   16:00   0.17   66.1    64    1.5   202     3.0   99999.0    0.00 
 214   16:10   0.42   66.8    62    3.4   237     6.6   99999.0    0.00 
 214   16:20   0.57   69.3    55    3.0   234     5.4   99999.0    0.00 
 214   16:30   0.27   69.5    55    3.3   242     6.0   99999.0    0.00 
 214   16:40   0.39   69.2    53    2.6   225     4.5   99999.0    0.00 
 214   16:50   0.25   69.2    52    2.6   253     4.2   99999.0    0.00 
 214   17:00   0.38   69.2    51    3.2   231     7.8   99999.0    0.00 
 214   17:10   0.37   70.5    44    3.9   175     7.2   99999.0    0.00 
 214   17:20   0.27   70.3    45    3.8   169     9.0   99999.0    0.00 
 214   17:30   0.22   68.5    48    3.6   197     7.8   99999.0    0.00 
 214   17:40   0.14   67.6    50    3.5   191     7.2   99999.0    0.00 
 214   17:50   0.11   66.1    52    3.5   195     9.6   99999.0    0.00 
 214   18:00   0.08   65.0    54    3.0   174     6.0   99999.0    0.00 
 214   18:10   0.06   64.3    56    2.4   163     7.2   99999.0    0.00 
 214   18:20   0.05   63.4    60    1.6   162     4.8   99999.0    0.00 
 214   18:30   0.03   62.5    64    1.0   168     3.6   99999.0    0.00 
 214   18:40   0.03   61.6    66    1.8   146     3.6   99999.0    0.00 
 214   18:50   0.02   61.0    69    1.3   118     2.4   99999.0    0.00 
 214   19:00   0.01   60.0    73    1.1    95     2.4   99999.0    0.00 
 214   19:10   0.00   59.2    77    0.9   359     2.1   99999.0    0.00 
 214   19:20   0.00   58.7    80    0.5    11     1.8   99999.0    0.00 
 214   19:30   0.00   58.5    83    0.4    48     1.8   99999.0    0.00 
 214   19:40   0.00   58.3    82    1.5    60     2.4   99999.0    0.00 
 214   19:50   0.00   58.0    84    0.5   349     1.8   99999.0    0.00 
 214   20:00   0.00   57.7    84    1.3    80     2.4   99999.0    0.00 
 214   20:10   0.00   57.7    83    0.5    79     2.4   99999.0    0.00 
 214   20:20   0.00   57.8    83    0.8    87     2.4   99999.0    0.00 
 214   20:30   0.00   57.9    83    1.2    81     2.4   99999.0    0.00 
 214   20:40   0.00   57.8    84    2.1   333     3.0   99999.0    0.00 
 214   20:50   0.00   57.9    84    1.6    62     2.4   99999.0    0.00 
 214   21:00   0.00   57.9    85    0.8    16     1.8   99999.0    0.00 
 214   21:10   0.00   57.8    86    1.5    74     3.6   99999.0    0.00 
 214   21:20   0.00   57.7    86    1.4   352     2.4   99999.0    0.00 
 214   21:30   0.00   57.6    86    0.9    67     1.8   99999.0    0.00 
 214   21:40   0.00   57.5    86    1.6    32     3.0   99999.0    0.00 
 214   21:50   0.00   57.5    84    0.1   354     1.8   99999.0    0.00 
 214   22:00   0.00   57.4    85    0.4    33     1.8   99999.0    0.00 
 214   22:10   0.00   56.7    90    1.8   284     3.0   99999.0    0.11 
 214   22:20   0.00   55.2    97    4.9   270    12.5   99999.0    0.26 
 214   22:30   0.00   54.4    98    2.1   210     3.6   99999.0    0.10 
 214   22:40   0.00   54.4    99    1.2   248     4.8   99999.0    0.06 
 214   22:50   0.00   54.5   100    4.0   295     6.0   99999.0    0.03 
 214   23:00   0.00   54.4   100    6.1   286    13.7   99999.0    0.14 
 214   23:10   0.00   53.8   100    5.4   286    10.2   99999.0    0.04 
 214   23:20   0.00   53.5   100    5.5   303    11.3   99999.0    0.01 
 214   23:30   0.00   53.4   100    3.8   335     8.4   99999.0    0.01 
 214   23:40   0.00   53.2   100    5.6   344    10.8   99999.0    0.00 
 214   23:50   0.00   53.0   100    5.0   351     8.4   99999.0    0.01 
 215    0:00   0.00   52.9    99    4.9   348     8.4   99999.0    0.00 
 215    0:10   0.00   52.8    99    3.4   358     7.2   99999.0    0.00 
 215    0:20   0.00   52.6    99    4.7     8    12.5   99999.0    0.00 
 215    0:30   0.00   52.3    98    3.8    17     9.0   99999.0    0.00 
 215    0:40   0.00   52.1    98    2.9    22     7.2   99999.0    0.00 
 215    0:50   0.00   52.1    99    2.6    36     4.2   99999.0    0.00 
 215    1:00   0.00   51.8    99    2.9    48     6.0   99999.0    0.00 
 215    1:10   0.00   51.7    99    0.7    93     2.4   99999.0    0.00 
 215    1:20   0.00   51.4    99    0.9    45     2.4   99999.0    0.00 
 215    1:30   0.00   51.1    99    2.0   337     3.0   99999.0    0.00 
 215    1:40   0.00   51.0    99    1.9    32     3.6   99999.0    0.00 
 215    1:50   0.00   50.7    99    1.5    79     3.0   99999.0    0.00 
 215    2:00   0.00   50.6   100    1.4    22     3.0   99999.0    0.00 
 215    2:10   0.00   50.5   100    0.6    59     1.8   99999.0    0.00 
 215    2:20   0.00   50.5   100    0.2    37     1.8   99999.0    0.00 
 215    2:30   0.00   50.6   100    0.1    61     1.2   99999.0    0.00 
 215    2:40   0.00   50.6   100    0.7    40     1.8   99999.0    0.00 
 215    2:50   0.00   50.6   100    1.1   345     1.8   99999.0    0.00 
 215    3:00   0.00   50.5   100    1.2    43     2.4   99999.0    0.00 
 215    3:10   0.00   50.4   100    1.9   355     3.6   99999.0    0.00 
 215    3:20   0.00   50.1   100    0.9   334     3.0   99999.0    0.00 
 215    3:30   0.00   49.5   100    0.5    23     1.8   99999.0    0.00 
 215    3:40   0.00   49.0   100    1.8    47     2.4   99999.0    0.00 
 215    3:50   0.00   48.4   100    0.9    30     1.8   99999.0    0.00 
 215    4:00   0.00   48.0   100    1.6    33     2.4   99999.0    0.00 
 215    4:10   0.00   47.6   100    1.1    48     2.4   99999.0    0.00 
 215    4:20   0.00   47.4   100    0.8    57     2.4   99999.0    0.00 

Return to Cebollita Spring, Valles Caldera graphs page.


Western Regional Climate Center,wrcc@dri.edu